sensor_id;sensor_type;location;lat;lon;timestamp;P1;durP1;ratioP1;P2;durP2;ratioP2
26963;SDS011;14521;48.148;-1.656;2023-09-19T00:01:16;2.78;;;0.82;;
26963;SDS011;14521;48.148;-1.656;2023-09-19T00:04:41;2.35;;;0.60;;
26963;SDS011;14521;48.148;-1.656;2023-09-19T00:08:05;2.75;;;0.77;;
26963;SDS011;14521;48.148;-1.656;2023-09-19T00:11:27;3.00;;;0.80;;
26963;SDS011;14521;48.148;-1.656;2023-09-19T00:14:50;1.48;;;0.40;;
26963;SDS011;14521;48.148;-1.656;2023-09-19T00:18:14;3.67;;;0.70;;
26963;SDS011;14521;48.148;-1.656;2023-09-19T00:21:44;1.52;;;0.65;;
26963;SDS011;14521;48.148;-1.656;2023-09-19T00:25:07;0.98;;;0.47;;
26963;SDS011;14521;48.148;-1.656;2023-09-19T00:28:31;2.85;;;0.60;;
26963;SDS011;14521;48.148;-1.656;2023-09-19T00:31:54;1.95;;;0.60;;
26963;SDS011;14521;48.148;-1.656;2023-09-19T00:35:17;2.42;;;0.63;;
26963;SDS011;14521;48.148;-1.656;2023-09-19T00:38:40;2.63;;;0.65;;
26963;SDS011;14521;48.148;-1.656;2023-09-19T00:42:03;3.33;;;0.40;;
26963;SDS011;14521;48.148;-1.656;2023-09-19T00:45:27;1.42;;;0.73;;
26963;SDS011;14521;48.148;-1.656;2023-09-19T00:48:50;1.88;;;0.60;;
26963;SDS011;14521;48.148;-1.656;2023-09-19T00:52:13;2.30;;;0.60;;
26963;SDS011;14521;48.148;-1.656;2023-09-19T00:55:35;3.55;;;0.80;;
26963;SDS011;14521;48.148;-1.656;2023-09-19T00:59:05;2.10;;;0.63;;
26963;SDS011;14521;48.148;-1.656;2023-09-19T01:02:28;2.80;;;0.60;;
26963;SDS011;14521;48.148;-1.656;2023-09-19T01:05:52;1.58;;;0.65;;
26963;SDS011;14521;48.148;-1.656;2023-09-19T01:09:14;3.70;;;0.60;;
26963;SDS011;14521;48.148;-1.656;2023-09-19T01:23:36;4.03;;;0.80;;
26963;SDS011;14521;48.148;-1.656;2023-09-19T01:30:48;2.47;;;0.70;;
26963;SDS011;14521;48.148;-1.656;2023-09-19T01:34:19;1.80;;;0.77;;
26963;SDS011;14521;48.148;-1.656;2023-09-19T01:37:42;3.45;;;0.68;;
26963;SDS011;14521;48.148;-1.656;2023-09-19T01:41:06;5.43;;;0.70;;
26963;SDS011;14521;48.148;-1.656;2023-09-19T01:44:40;2.20;;;0.57;;
26963;SDS011;14521;48.148;-1.656;2023-09-19T01:52:27;2.83;;;0.50;;
26963;SDS011;14521;48.148;-1.656;2023-09-19T01:55:43;2.45;;;0.82;;
26963;SDS011;14521;48.148;-1.656;2023-09-19T01:59:13;3.83;;;0.73;;
26963;SDS011;14521;48.148;-1.656;2023-09-19T02:02:44;1.38;;;0.80;;
26963;SDS011;14521;48.148;-1.656;2023-09-19T02:06:13;1.35;;;0.70;;
26963;SDS011;14521;48.148;-1.656;2023-09-19T02:09:37;3.33;;;1.00;;
26963;SDS011;14521;48.148;-1.656;2023-09-19T02:13:00;1.15;;;0.65;;
26963;SDS011;14521;48.148;-1.656;2023-09-19T02:16:26;3.97;;;0.80;;
26963;SDS011;14521;48.148;-1.656;2023-09-19T02:19:48;5.40;;;0.80;;
26963;SDS011;14521;48.148;-1.656;2023-09-19T02:23:10;2.17;;;0.98;;
26963;SDS011;14521;48.148;-1.656;2023-09-19T02:26:34;5.15;;;0.93;;
26963;SDS011;14521;48.148;-1.656;2023-09-19T02:30:00;4.60;;;1.00;;
26963;SDS011;14521;48.148;-1.656;2023-09-19T02:33:25;1.63;;;0.70;;
26963;SDS011;14521;48.148;-1.656;2023-09-19T02:36:48;2.10;;;0.80;;
26963;SDS011;14521;48.148;-1.656;2023-09-19T02:40:10;3.85;;;0.90;;
26963;SDS011;14521;48.148;-1.656;2023-09-19T02:43:47;4.35;;;0.88;;
26963;SDS011;14521;48.148;-1.656;2023-09-19T02:47:09;3.95;;;0.85;;
26963;SDS011;14521;48.148;-1.656;2023-09-19T02:50:32;2.95;;;0.80;;
26963;SDS011;14521;48.148;-1.656;2023-09-19T02:53:55;1.73;;;0.70;;
26963;SDS011;14521;48.148;-1.656;2023-09-19T02:57:17;2.92;;;0.80;;
26963;SDS011;14521;48.148;-1.656;2023-09-19T03:00:41;3.95;;;0.90;;
26963;SDS011;14521;48.148;-1.656;2023-09-19T03:04:04;3.97;;;1.05;;
26963;SDS011;14521;48.148;-1.656;2023-09-19T03:07:30;6.13;;;1.17;;
26963;SDS011;14521;48.148;-1.656;2023-09-19T03:10:52;3.53;;;1.00;;
26963;SDS011;14521;48.148;-1.656;2023-09-19T03:14:15;3.78;;;1.10;;
26963;SDS011;14521;48.148;-1.656;2023-09-19T03:17:43;3.65;;;1.00;;
26963;SDS011;14521;48.148;-1.656;2023-09-19T03:21:06;4.53;;;0.80;;
26963;SDS011;14521;48.148;-1.656;2023-09-19T03:24:29;6.15;;;1.02;;
26963;SDS011;14521;48.148;-1.656;2023-09-19T03:27:55;9.52;;;1.55;;
26963;SDS011;14521;48.148;-1.656;2023-09-19T03:31:20;6.78;;;0.80;;
26963;SDS011;14521;48.148;-1.656;2023-09-19T03:34:42;6.05;;;0.88;;
26963;SDS011;14521;48.148;-1.656;2023-09-19T03:38:06;2.40;;;0.73;;
26963;SDS011;14521;48.148;-1.656;2023-09-19T03:41:29;4.97;;;1.02;;
26963;SDS011;14521;48.148;-1.656;2023-09-19T03:44:51;6.75;;;0.88;;
26963;SDS011;14521;48.148;-1.656;2023-09-19T03:48:14;4.95;;;1.00;;
26963;SDS011;14521;48.148;-1.656;2023-09-19T03:51:36;3.97;;;1.00;;
26963;SDS011;14521;48.148;-1.656;2023-09-19T03:54:59;3.97;;;0.93;;
26963;SDS011;14521;48.148;-1.656;2023-09-19T03:58:23;7.30;;;1.77;;
26963;SDS011;14521;48.148;-1.656;2023-09-19T04:01:46;4.90;;;0.98;;
26963;SDS011;14521;48.148;-1.656;2023-09-19T04:05:08;4.65;;;0.73;;
26963;SDS011;14521;48.148;-1.656;2023-09-19T04:08:32;5.95;;;1.10;;
26963;SDS011;14521;48.148;-1.656;2023-09-19T04:11:54;5.35;;;0.90;;
26963;SDS011;14521;48.148;-1.656;2023-09-19T04:15:17;2.83;;;0.75;;
26963;SDS011;14521;48.148;-1.656;2023-09-19T04:18:40;6.15;;;1.10;;
26963;SDS011;14521;48.148;-1.656;2023-09-19T04:22:03;4.30;;;0.90;;
26963;SDS011;14521;48.148;-1.656;2023-09-19T04:25:26;5.95;;;1.13;;
26963;SDS011;14521;48.148;-1.656;2023-09-19T04:28:49;3.50;;;1.15;;
26963;SDS011;14521;48.148;-1.656;2023-09-19T04:32:13;6.78;;;0.95;;
26963;SDS011;14521;48.148;-1.656;2023-09-19T04:35:35;5.97;;;1.10;;
26963;SDS011;14521;48.148;-1.656;2023-09-19T04:38:57;3.50;;;0.98;;
26963;SDS011;14521;48.148;-1.656;2023-09-19T04:42:20;2.40;;;0.88;;
26963;SDS011;14521;48.148;-1.656;2023-09-19T04:45:43;7.15;;;1.00;;
26963;SDS011;14521;48.148;-1.656;2023-09-19T04:49:05;5.60;;;1.20;;
26963;SDS011;14521;48.148;-1.656;2023-09-19T04:52:29;7.78;;;1.17;;
26963;SDS011;14521;48.148;-1.656;2023-09-19T04:55:53;3.80;;;1.10;;
26963;SDS011;14521;48.148;-1.656;2023-09-19T04:59:17;5.87;;;1.10;;
26963;SDS011;14521;48.148;-1.656;2023-09-19T05:02:40;6.75;;;1.10;;
26963;SDS011;14521;48.148;-1.656;2023-09-19T05:06:04;2.03;;;0.82;;
26963;SDS011;14521;48.148;-1.656;2023-09-19T05:09:27;5.78;;;1.13;;
26963;SDS011;14521;48.148;-1.656;2023-09-19T05:12:49;4.07;;;0.85;;
26963;SDS011;14521;48.148;-1.656;2023-09-19T05:16:15;7.30;;;0.95;;
26963;SDS011;14521;48.148;-1.656;2023-09-19T05:19:38;7.47;;;1.52;;
26963;SDS011;14521;48.148;-1.656;2023-09-19T05:23:04;6.63;;;1.08;;
26963;SDS011;14521;48.148;-1.656;2023-09-19T05:26:29;4.72;;;1.20;;
26963;SDS011;14521;48.148;-1.656;2023-09-19T05:29:52;8.75;;;1.40;;
26963;SDS011;14521;48.148;-1.656;2023-09-19T05:33:14;9.35;;;1.17;;
26963;SDS011;14521;48.148;-1.656;2023-09-19T05:36:37;6.55;;;1.13;;
26963;SDS011;14521;48.148;-1.656;2023-09-19T05:40:01;8.18;;;1.33;;
26963;SDS011;14521;48.148;-1.656;2023-09-19T05:43:24;5.03;;;0.90;;
26963;SDS011;14521;48.148;-1.656;2023-09-19T05:46:46;6.20;;;1.20;;
26963;SDS011;14521;48.148;-1.656;2023-09-19T05:50:10;8.73;;;1.30;;
26963;SDS011;14521;48.148;-1.656;2023-09-19T05:53:32;5.53;;;0.88;;
26963;SDS011;14521;48.148;-1.656;2023-09-19T05:56:55;5.68;;;0.98;;
26963;SDS011;14521;48.148;-1.656;2023-09-19T06:00:20;4.88;;;0.77;;
26963;SDS011;14521;48.148;-1.656;2023-09-19T06:03:45;4.57;;;1.40;;
26963;SDS011;14521;48.148;-1.656;2023-09-19T06:07:08;4.88;;;1.38;;
26963;SDS011;14521;48.148;-1.656;2023-09-19T06:10:30;3.92;;;1.48;;
26963;SDS011;14521;48.148;-1.656;2023-09-19T06:13:54;7.10;;;1.85;;
26963;SDS011;14521;48.148;-1.656;2023-09-19T06:17:16;3.75;;;1.38;;
26963;SDS011;14521;48.148;-1.656;2023-09-19T06:20:41;7.22;;;1.83;;
26963;SDS011;14521;48.148;-1.656;2023-09-19T06:24:06;8.00;;;1.73;;
26963;SDS011;14521;48.148;-1.656;2023-09-19T06:27:29;3.78;;;1.58;;
26963;SDS011;14521;48.148;-1.656;2023-09-19T06:30:51;8.45;;;1.15;;
26963;SDS011;14521;48.148;-1.656;2023-09-19T06:34:13;4.38;;;1.00;;
26963;SDS011;14521;48.148;-1.656;2023-09-19T06:37:37;3.40;;;1.10;;
26963;SDS011;14521;48.148;-1.656;2023-09-19T06:41:00;6.00;;;1.20;;
26963;SDS011;14521;48.148;-1.656;2023-09-19T06:44:23;2.97;;;1.35;;
26963;SDS011;14521;48.148;-1.656;2023-09-19T06:47:46;3.00;;;1.02;;
26963;SDS011;14521;48.148;-1.656;2023-09-19T06:51:13;9.15;;;1.80;;
26963;SDS011;14521;48.148;-1.656;2023-09-19T06:54:37;13.13;;;1.35;;
26963;SDS011;14521;48.148;-1.656;2023-09-19T06:58:01;7.65;;;1.42;;
26963;SDS011;14521;48.148;-1.656;2023-09-19T07:01:24;8.73;;;0.93;;
26963;SDS011;14521;48.148;-1.656;2023-09-19T07:04:47;4.60;;;1.30;;
26963;SDS011;14521;48.148;-1.656;2023-09-19T07:08:10;2.65;;;0.82;;
26963;SDS011;14521;48.148;-1.656;2023-09-19T07:11:34;2.85;;;0.90;;
26963;SDS011;14521;48.148;-1.656;2023-09-19T07:14:56;5.10;;;1.10;;
26963;SDS011;14521;48.148;-1.656;2023-09-19T07:18:19;4.93;;;1.13;;
26963;SDS011;14521;48.148;-1.656;2023-09-19T07:21:41;5.72;;;1.10;;
26963;SDS011;14521;48.148;-1.656;2023-09-19T07:25:04;3.50;;;1.10;;
26963;SDS011;14521;48.148;-1.656;2023-09-19T07:28:27;3.72;;;1.02;;
26963;SDS011;14521;48.148;-1.656;2023-09-19T07:31:50;4.38;;;0.98;;
26963;SDS011;14521;48.148;-1.656;2023-09-19T07:35:12;6.88;;;1.30;;
26963;SDS011;14521;48.148;-1.656;2023-09-19T07:38:35;4.55;;;0.98;;
26963;SDS011;14521;48.148;-1.656;2023-09-19T07:41:57;3.65;;;1.00;;
26963;SDS011;14521;48.148;-1.656;2023-09-19T07:45:19;6.43;;;0.90;;
26963;SDS011;14521;48.148;-1.656;2023-09-19T07:48:42;6.25;;;0.93;;
26963;SDS011;14521;48.148;-1.656;2023-09-19T07:52:09;6.03;;;1.10;;
26963;SDS011;14521;48.148;-1.656;2023-09-19T07:55:32;5.00;;;1.10;;
26963;SDS011;14521;48.148;-1.656;2023-09-19T07:58:56;4.68;;;1.20;;
26963;SDS011;14521;48.148;-1.656;2023-09-19T08:02:21;3.63;;;0.90;;
26963;SDS011;14521;48.148;-1.656;2023-09-19T08:05:44;3.88;;;1.10;;
26963;SDS011;14521;48.148;-1.656;2023-09-19T08:09:07;5.05;;;0.63;;
26963;SDS011;14521;48.148;-1.656;2023-09-19T08:12:32;4.93;;;1.13;;
26963;SDS011;14521;48.148;-1.656;2023-09-19T08:15:57;6.22;;;1.08;;
26963;SDS011;14521;48.148;-1.656;2023-09-19T08:19:19;7.50;;;0.82;;
26963;SDS011;14521;48.148;-1.656;2023-09-19T08:22:51;2.45;;;0.70;;
26963;SDS011;14521;48.148;-1.656;2023-09-19T08:26:16;4.57;;;1.10;;
26963;SDS011;14521;48.148;-1.656;2023-09-19T08:29:39;2.47;;;1.00;;
26963;SDS011;14521;48.148;-1.656;2023-09-19T08:33:02;1.45;;;0.68;;
26963;SDS011;14521;48.148;-1.656;2023-09-19T08:36:27;6.88;;;1.00;;
26963;SDS011;14521;48.148;-1.656;2023-09-19T08:39:49;3.67;;;0.98;;
26963;SDS011;14521;48.148;-1.656;2023-09-19T08:43:11;5.30;;;1.10;;
26963;SDS011;14521;48.148;-1.656;2023-09-19T08:46:34;1.88;;;0.90;;
26963;SDS011;14521;48.148;-1.656;2023-09-19T08:53:39;1.92;;;1.00;;
26963;SDS011;14521;48.148;-1.656;2023-09-19T08:57:06;3.83;;;0.77;;
26963;SDS011;14521;48.148;-1.656;2023-09-19T09:00:32;2.90;;;0.77;;
26963;SDS011;14521;48.148;-1.656;2023-09-19T09:03:56;4.77;;;0.90;;
26963;SDS011;14521;48.148;-1.656;2023-09-19T09:07:19;4.45;;;1.00;;
26963;SDS011;14521;48.148;-1.656;2023-09-19T09:10:44;3.35;;;0.95;;
26963;SDS011;14521;48.148;-1.656;2023-09-19T09:14:06;3.85;;;0.98;;
26963;SDS011;14521;48.148;-1.656;2023-09-19T09:17:29;2.67;;;1.10;;
26963;SDS011;14521;48.148;-1.656;2023-09-19T09:20:52;6.00;;;1.38;;
26963;SDS011;14521;48.148;-1.656;2023-09-19T09:24:33;3.45;;;0.98;;
26963;SDS011;14521;48.148;-1.656;2023-09-19T09:27:59;4.82;;;1.17;;
26963;SDS011;14521;48.148;-1.656;2023-09-19T09:31:23;1.27;;;0.90;;
26963;SDS011;14521;48.148;-1.656;2023-09-19T09:34:48;2.50;;;0.80;;
26963;SDS011;14521;48.148;-1.656;2023-09-19T09:38:13;2.67;;;0.90;;
26963;SDS011;14521;48.148;-1.656;2023-09-19T09:41:37;2.20;;;0.95;;
26963;SDS011;14521;48.148;-1.656;2023-09-19T09:45:14;3.23;;;0.90;;
26963;SDS011;14521;48.148;-1.656;2023-09-19T09:48:37;2.53;;;0.93;;
26963;SDS011;14521;48.148;-1.656;2023-09-19T09:52:04;5.47;;;1.08;;
26963;SDS011;14521;48.148;-1.656;2023-09-19T09:56:21;1.88;;;0.88;;
26963;SDS011;14521;48.148;-1.656;2023-09-19T09:59:43;2.60;;;1.02;;
26963;SDS011;14521;48.148;-1.656;2023-09-19T10:03:21;5.75;;;1.25;;
26963;SDS011;14521;48.148;-1.656;2023-09-19T10:06:53;2.30;;;1.02;;
26963;SDS011;14521;48.148;-1.656;2023-09-19T10:10:37;6.07;;;1.00;;
26963;SDS011;14521;48.148;-1.656;2023-09-19T10:14:05;4.55;;;1.55;;
26963;SDS011;14521;48.148;-1.656;2023-09-19T10:17:30;4.65;;;1.00;;
26963;SDS011;14521;48.148;-1.656;2023-09-19T10:20:56;2.90;;;1.25;;
26963;SDS011;14521;48.148;-1.656;2023-09-19T10:24:19;2.53;;;0.80;;
26963;SDS011;14521;48.148;-1.656;2023-09-19T10:27:43;1.87;;;1.10;;
26963;SDS011;14521;48.148;-1.656;2023-09-19T10:31:07;2.97;;;1.00;;
26963;SDS011;14521;48.148;-1.656;2023-09-19T10:34:37;5.72;;;1.10;;
26963;SDS011;14521;48.148;-1.656;2023-09-19T10:38:03;2.17;;;1.13;;
26963;SDS011;14521;48.148;-1.656;2023-09-19T10:41:27;6.35;;;0.98;;
26963;SDS011;14521;48.148;-1.656;2023-09-19T10:44:52;3.63;;;1.10;;
26963;SDS011;14521;48.148;-1.656;2023-09-19T10:48:17;3.22;;;0.90;;
26963;SDS011;14521;48.148;-1.656;2023-09-19T10:51:49;6.28;;;1.33;;
26963;SDS011;14521;48.148;-1.656;2023-09-19T10:55:17;2.53;;;0.82;;
26963;SDS011;14521;48.148;-1.656;2023-09-19T10:58:41;3.78;;;1.00;;
26963;SDS011;14521;48.148;-1.656;2023-09-19T11:02:16;2.13;;;1.08;;
26963;SDS011;14521;48.148;-1.656;2023-09-19T11:05:39;4.50;;;1.30;;
26963;SDS011;14521;48.148;-1.656;2023-09-19T11:09:03;4.57;;;1.30;;
26963;SDS011;14521;48.148;-1.656;2023-09-19T11:16:03;6.15;;;1.40;;
26963;SDS011;14521;48.148;-1.656;2023-09-19T11:20:14;2.80;;;1.10;;
26963;SDS011;14521;48.148;-1.656;2023-09-19T11:23:33;4.75;;;1.25;;
26963;SDS011;14521;48.148;-1.656;2023-09-19T11:27:11;3.20;;;1.02;;
26963;SDS011;14521;48.148;-1.656;2023-09-19T11:30:37;4.05;;;1.20;;
26963;SDS011;14521;48.148;-1.656;2023-09-19T11:38:00;2.75;;;1.05;;
26963;SDS011;14521;48.148;-1.656;2023-09-19T11:41:38;4.70;;;1.48;;
26963;SDS011;14521;48.148;-1.656;2023-09-19T11:45:01;2.97;;;1.38;;
26963;SDS011;14521;48.148;-1.656;2023-09-19T11:48:24;5.82;;;1.70;;
26963;SDS011;14521;48.148;-1.656;2023-09-19T11:51:50;6.90;;;1.10;;
26963;SDS011;14521;48.148;-1.656;2023-09-19T11:55:13;4.97;;;1.40;;
26963;SDS011;14521;48.148;-1.656;2023-09-19T11:58:54;5.03;;;1.25;;
26963;SDS011;14521;48.148;-1.656;2023-09-19T12:02:27;9.45;;;1.50;;
26963;SDS011;14521;48.148;-1.656;2023-09-19T12:06:01;1.42;;;0.90;;
26963;SDS011;14521;48.148;-1.656;2023-09-19T12:09:32;5.30;;;1.45;;
26963;SDS011;14521;48.148;-1.656;2023-09-19T12:12:54;4.00;;;1.20;;
26963;SDS011;14521;48.148;-1.656;2023-09-19T12:16:19;5.53;;;1.27;;
26963;SDS011;14521;48.148;-1.656;2023-09-19T12:19:52;2.80;;;1.10;;
26963;SDS011;14521;48.148;-1.656;2023-09-19T12:23:15;4.03;;;1.30;;
26963;SDS011;14521;48.148;-1.656;2023-09-19T12:26:41;5.38;;;1.52;;
26963;SDS011;14521;48.148;-1.656;2023-09-19T12:30:05;3.92;;;1.02;;
26963;SDS011;14521;48.148;-1.656;2023-09-19T12:33:45;3.88;;;1.40;;
26963;SDS011;14521;48.148;-1.656;2023-09-19T12:40:34;4.32;;;1.30;;
26963;SDS011;14521;48.148;-1.656;2023-09-19T12:44:01;4.22;;;1.45;;
26963;SDS011;14521;48.148;-1.656;2023-09-19T12:47:24;3.75;;;1.27;;
26963;SDS011;14521;48.148;-1.656;2023-09-19T12:54:39;4.85;;;1.23;;
26963;SDS011;14521;48.148;-1.656;2023-09-19T12:58:14;5.78;;;1.42;;
26963;SDS011;14521;48.148;-1.656;2023-09-19T13:01:41;4.38;;;1.10;;
26963;SDS011;14521;48.148;-1.656;2023-09-19T13:05:12;4.03;;;1.15;;
26963;SDS011;14521;48.148;-1.656;2023-09-19T13:08:35;4.28;;;2.03;;
26963;SDS011;14521;48.148;-1.656;2023-09-19T13:12:04;3.60;;;1.35;;
26963;SDS011;14521;48.148;-1.656;2023-09-19T13:15:53;6.70;;;1.42;;
26963;SDS011;14521;48.148;-1.656;2023-09-19T13:23:02;4.93;;;1.55;;
26963;SDS011;14521;48.148;-1.656;2023-09-19T13:26:32;3.00;;;1.23;;
26963;SDS011;14521;48.148;-1.656;2023-09-19T13:29:54;4.93;;;1.45;;
26963;SDS011;14521;48.148;-1.656;2023-09-19T13:33:16;7.30;;;1.52;;
26963;SDS011;14521;48.148;-1.656;2023-09-19T13:36:43;5.65;;;1.98;;
26963;SDS011;14521;48.148;-1.656;2023-09-19T13:40:09;4.47;;;1.80;;
26963;SDS011;14521;48.148;-1.656;2023-09-19T13:43:36;2.72;;;1.40;;
26963;SDS011;14521;48.148;-1.656;2023-09-19T13:47:00;5.53;;;1.88;;
26963;SDS011;14521;48.148;-1.656;2023-09-19T13:50:24;6.15;;;1.60;;
26963;SDS011;14521;48.148;-1.656;2023-09-19T13:53:46;7.30;;;2.00;;
26963;SDS011;14521;48.148;-1.656;2023-09-19T13:57:09;6.45;;;1.88;;
26963;SDS011;14521;48.148;-1.656;2023-09-19T14:00:32;2.63;;;1.30;;
26963;SDS011;14521;48.148;-1.656;2023-09-19T14:03:57;5.38;;;1.75;;
26963;SDS011;14521;48.148;-1.656;2023-09-19T14:07:20;6.72;;;1.52;;
26963;SDS011;14521;48.148;-1.656;2023-09-19T14:10:42;4.90;;;1.75;;
26963;SDS011;14521;48.148;-1.656;2023-09-19T14:14:04;7.32;;;1.50;;
26963;SDS011;14521;48.148;-1.656;2023-09-19T14:17:27;5.03;;;1.90;;
26963;SDS011;14521;48.148;-1.656;2023-09-19T14:20:50;8.48;;;1.83;;
26963;SDS011;14521;48.148;-1.656;2023-09-19T14:24:17;11.35;;;2.05;;
26963;SDS011;14521;48.148;-1.656;2023-09-19T14:27:40;5.10;;;1.85;;
26963;SDS011;14521;48.148;-1.656;2023-09-19T14:31:03;4.40;;;1.60;;
26963;SDS011;14521;48.148;-1.656;2023-09-19T14:34:28;9.05;;;2.47;;
26963;SDS011;14521;48.148;-1.656;2023-09-19T14:37:50;5.32;;;1.73;;
26963;SDS011;14521;48.148;-1.656;2023-09-19T14:41:13;3.72;;;1.80;;
26963;SDS011;14521;48.148;-1.656;2023-09-19T14:44:35;5.43;;;2.22;;
26963;SDS011;14521;48.148;-1.656;2023-09-19T14:47:59;10.38;;;1.60;;
26963;SDS011;14521;48.148;-1.656;2023-09-19T14:51:21;10.27;;;1.90;;
26963;SDS011;14521;48.148;-1.656;2023-09-19T14:54:43;7.70;;;1.90;;
26963;SDS011;14521;48.148;-1.656;2023-09-19T14:58:06;6.72;;;2.10;;
26963;SDS011;14521;48.148;-1.656;2023-09-19T15:01:29;3.10;;;1.67;;
26963;SDS011;14521;48.148;-1.656;2023-09-19T15:04:52;6.75;;;1.80;;
26963;SDS011;14521;48.148;-1.656;2023-09-19T15:08:14;8.18;;;1.80;;
26963;SDS011;14521;48.148;-1.656;2023-09-19T15:11:37;5.95;;;2.22;;
26963;SDS011;14521;48.148;-1.656;2023-09-19T15:14:59;8.77;;;2.42;;
26963;SDS011;14521;48.148;-1.656;2023-09-19T15:18:22;5.32;;;2.03;;
26963;SDS011;14521;48.148;-1.656;2023-09-19T15:21:44;6.03;;;2.00;;
26963;SDS011;14521;48.148;-1.656;2023-09-19T15:25:07;8.73;;;2.58;;
26963;SDS011;14521;48.148;-1.656;2023-09-19T15:28:29;6.72;;;2.20;;
26963;SDS011;14521;48.148;-1.656;2023-09-19T15:31:54;5.13;;;1.77;;
26963;SDS011;14521;48.148;-1.656;2023-09-19T15:35:20;5.70;;;2.38;;
26963;SDS011;14521;48.148;-1.656;2023-09-19T15:42:28;9.30;;;2.10;;
26963;SDS011;14521;48.148;-1.656;2023-09-19T15:45:50;4.93;;;1.90;;
26963;SDS011;14521;48.148;-1.656;2023-09-19T15:49:14;7.10;;;2.33;;
26963;SDS011;14521;48.148;-1.656;2023-09-19T15:52:36;5.22;;;2.13;;
26963;SDS011;14521;48.148;-1.656;2023-09-19T15:56:02;5.28;;;2.15;;
26963;SDS011;14521;48.148;-1.656;2023-09-19T15:59:28;5.93;;;2.45;;
26963;SDS011;14521;48.148;-1.656;2023-09-19T16:02:51;4.00;;;1.98;;
26963;SDS011;14521;48.148;-1.656;2023-09-19T16:06:18;7.32;;;2.30;;
26963;SDS011;14521;48.148;-1.656;2023-09-19T16:09:47;12.82;;;2.33;;
26963;SDS011;14521;48.148;-1.656;2023-09-19T16:13:09;5.60;;;2.33;;
26963;SDS011;14521;48.148;-1.656;2023-09-19T16:16:31;4.32;;;2.17;;
26963;SDS011;14521;48.148;-1.656;2023-09-19T16:19:57;9.35;;;2.30;;
26963;SDS011;14521;48.148;-1.656;2023-09-19T16:23:19;5.25;;;1.85;;
26963;SDS011;14521;48.148;-1.656;2023-09-19T16:26:41;5.43;;;1.98;;
26963;SDS011;14521;48.148;-1.656;2023-09-19T16:30:04;5.85;;;2.20;;
26963;SDS011;14521;48.148;-1.656;2023-09-19T16:33:33;4.65;;;2.10;;
26963;SDS011;14521;48.148;-1.656;2023-09-19T16:36:59;6.85;;;2.20;;
26963;SDS011;14521;48.148;-1.656;2023-09-19T16:40:24;4.28;;;1.90;;
26963;SDS011;14521;48.148;-1.656;2023-09-19T16:43:46;8.93;;;2.40;;
26963;SDS011;14521;48.148;-1.656;2023-09-19T16:47:09;4.07;;;2.25;;
26963;SDS011;14521;48.148;-1.656;2023-09-19T16:50:32;6.65;;;1.90;;
26963;SDS011;14521;48.148;-1.656;2023-09-19T16:53:56;8.63;;;2.53;;
26963;SDS011;14521;48.148;-1.656;2023-09-19T16:57:19;5.40;;;2.33;;
26963;SDS011;14521;48.148;-1.656;2023-09-19T17:00:25;3.30;;;2.30;;
26963;SDS011;14521;48.148;-1.656;2023-09-19T17:03:47;7.85;;;2.30;;
26963;SDS011;14521;48.148;-1.656;2023-09-19T17:07:11;6.05;;;2.10;;
26963;SDS011;14521;48.148;-1.656;2023-09-19T17:10:34;3.40;;;1.98;;
26963;SDS011;14521;48.148;-1.656;2023-09-19T17:13:57;6.80;;;2.50;;
26963;SDS011;14521;48.148;-1.656;2023-09-19T17:17:19;4.38;;;2.50;;
26963;SDS011;14521;48.148;-1.656;2023-09-19T17:20:41;9.25;;;2.33;;
26963;SDS011;14521;48.148;-1.656;2023-09-19T17:24:04;6.95;;;2.95;;
26963;SDS011;14521;48.148;-1.656;2023-09-19T17:27:29;6.57;;;4.00;;
26963;SDS011;14521;48.148;-1.656;2023-09-19T17:30:52;11.02;;;6.25;;
26963;SDS011;14521;48.148;-1.656;2023-09-19T17:34:15;10.75;;;6.78;;
26963;SDS011;14521;48.148;-1.656;2023-09-19T17:37:37;21.45;;;11.48;;
26963;SDS011;14521;48.148;-1.656;2023-09-19T17:41:01;19.23;;;12.77;;
26963;SDS011;14521;48.148;-1.656;2023-09-19T17:44:25;13.43;;;8.60;;
26963;SDS011;14521;48.148;-1.656;2023-09-19T17:47:47;31.90;;;21.13;;
26963;SDS011;14521;48.148;-1.656;2023-09-19T17:51:09;12.95;;;10.75;;
26963;SDS011;14521;48.148;-1.656;2023-09-19T17:54:32;14.38;;;9.32;;
26963;SDS011;14521;48.148;-1.656;2023-09-19T17:57:55;13.07;;;8.95;;
26963;SDS011;14521;48.148;-1.656;2023-09-19T18:01:20;12.10;;;6.60;;
26963;SDS011;14521;48.148;-1.656;2023-09-19T18:04:42;9.75;;;6.30;;
26963;SDS011;14521;48.148;-1.656;2023-09-19T18:08:05;13.70;;;6.15;;
26963;SDS011;14521;48.148;-1.656;2023-09-19T18:11:27;12.27;;;6.00;;
26963;SDS011;14521;48.148;-1.656;2023-09-19T18:14:50;8.60;;;6.30;;
26963;SDS011;14521;48.148;-1.656;2023-09-19T18:18:12;7.22;;;5.50;;
26963;SDS011;14521;48.148;-1.656;2023-09-19T18:21:35;8.63;;;6.18;;
26963;SDS011;14521;48.148;-1.656;2023-09-19T18:24:59;9.65;;;5.70;;
26963;SDS011;14521;48.148;-1.656;2023-09-19T18:28:22;16.05;;;5.30;;
26963;SDS011;14521;48.148;-1.656;2023-09-19T18:31:44;9.98;;;4.75;;
26963;SDS011;14521;48.148;-1.656;2023-09-19T18:35:07;8.82;;;4.40;;
26963;SDS011;14521;48.148;-1.656;2023-09-19T18:38:48;9.38;;;4.55;;
26963;SDS011;14521;48.148;-1.656;2023-09-19T18:42:10;10.00;;;4.95;;
26963;SDS011;14521;48.148;-1.656;2023-09-19T18:45:33;11.27;;;3.60;;
26963;SDS011;14521;48.148;-1.656;2023-09-19T18:49:02;12.43;;;3.33;;
26963;SDS011;14521;48.148;-1.656;2023-09-19T18:52:24;13.77;;;2.78;;
26963;SDS011;14521;48.148;-1.656;2023-09-19T18:55:46;11.98;;;2.50;;
26963;SDS011;14521;48.148;-1.656;2023-09-19T18:59:09;14.68;;;2.78;;
26963;SDS011;14521;48.148;-1.656;2023-09-19T19:02:35;12.80;;;2.30;;
26963;SDS011;14521;48.148;-1.656;2023-09-19T19:09:26;5.40;;;2.05;;
26963;SDS011;14521;48.148;-1.656;2023-09-19T19:12:48;10.95;;;2.45;;
26963;SDS011;14521;48.148;-1.656;2023-09-19T19:16:10;8.60;;;2.33;;
26963;SDS011;14521;48.148;-1.656;2023-09-19T19:19:33;9.00;;;2.47;;
26963;SDS011;14521;48.148;-1.656;2023-09-19T19:22:56;8.35;;;2.00;;
26963;SDS011;14521;48.148;-1.656;2023-09-19T19:26:21;9.40;;;2.17;;
26963;SDS011;14521;48.148;-1.656;2023-09-19T19:29:43;5.28;;;2.25;;
26963;SDS011;14521;48.148;-1.656;2023-09-19T19:33:06;5.05;;;2.10;;
26963;SDS011;14521;48.148;-1.656;2023-09-19T19:36:28;13.57;;;2.42;;
26963;SDS011;14521;48.148;-1.656;2023-09-19T19:39:51;5.40;;;1.90;;
26963;SDS011;14521;48.148;-1.656;2023-09-19T19:43:13;9.35;;;1.90;;
26963;SDS011;14521;48.148;-1.656;2023-09-19T19:46:36;8.05;;;2.08;;
26963;SDS011;14521;48.148;-1.656;2023-09-19T19:49:59;5.35;;;2.67;;
26963;SDS011;14521;48.148;-1.656;2023-09-19T19:53:25;6.57;;;2.15;;
26963;SDS011;14521;48.148;-1.656;2023-09-19T19:56:47;9.38;;;2.25;;
26963;SDS011;14521;48.148;-1.656;2023-09-19T20:00:10;7.00;;;1.90;;
26963;SDS011;14521;48.148;-1.656;2023-09-19T20:03:34;6.53;;;2.20;;
26963;SDS011;14521;48.148;-1.656;2023-09-19T20:06:59;5.20;;;1.80;;
26963;SDS011;14521;48.148;-1.656;2023-09-19T20:10:22;5.25;;;1.67;;
26963;SDS011;14521;48.148;-1.656;2023-09-19T20:13:44;7.97;;;2.00;;
26963;SDS011;14521;48.148;-1.656;2023-09-19T20:16:49;10.57;;;2.03;;
26963;SDS011;14521;48.148;-1.656;2023-09-19T20:20:16;5.93;;;1.95;;
26963;SDS011;14521;48.148;-1.656;2023-09-19T20:23:40;5.80;;;1.83;;
26963;SDS011;14521;48.148;-1.656;2023-09-19T20:27:06;10.30;;;2.03;;
26963;SDS011;14521;48.148;-1.656;2023-09-19T20:30:28;9.07;;;2.08;;
26963;SDS011;14521;48.148;-1.656;2023-09-19T20:33:51;5.28;;;1.73;;
26963;SDS011;14521;48.148;-1.656;2023-09-19T20:37:13;12.20;;;2.35;;
26963;SDS011;14521;48.148;-1.656;2023-09-19T20:40:40;13.10;;;2.20;;
26963;SDS011;14521;48.148;-1.656;2023-09-19T20:44:03;8.88;;;2.03;;
26963;SDS011;14521;48.148;-1.656;2023-09-19T20:47:26;6.00;;;1.60;;
26963;SDS011;14521;48.148;-1.656;2023-09-19T20:50:49;10.32;;;2.33;;
26963;SDS011;14521;48.148;-1.656;2023-09-19T20:54:13;11.55;;;2.10;;
26963;SDS011;14521;48.148;-1.656;2023-09-19T20:57:38;8.55;;;2.08;;
26963;SDS011;14521;48.148;-1.656;2023-09-19T21:01:01;9.88;;;1.92;;